sensor_id;sensor_type;location;lat;lon;timestamp;P1;durP1;ratioP1;P2;durP2;ratioP2
69034;SDS011;56091;55.756;37.412;2022-12-24T00:04:59;26.60;;;10.43;;
69034;SDS011;56091;55.756;37.412;2022-12-24T00:10:00;29.27;;;11.30;;
69034;SDS011;56091;55.756;37.412;2022-12-24T00:15:01;29.07;;;11.43;;
69034;SDS011;56091;55.756;37.412;2022-12-24T00:20:03;34.38;;;12.57;;
69034;SDS011;56091;55.756;37.412;2022-12-24T00:25:05;35.57;;;13.80;;
69034;SDS011;56091;55.756;37.412;2022-12-24T00:30:06;35.92;;;13.32;;
69034;SDS011;56091;55.756;37.412;2022-12-24T00:35:07;33.93;;;12.67;;
69034;SDS011;56091;55.756;37.412;2022-12-24T00:40:08;37.28;;;13.48;;
69034;SDS011;56091;55.756;37.412;2022-12-24T00:45:10;31.47;;;12.33;;
69034;SDS011;56091;55.756;37.412;2022-12-24T00:50:11;38.58;;;13.50;;
69034;SDS011;56091;55.756;37.412;2022-12-24T00:55:24;41.13;;;14.30;;
69034;SDS011;56091;55.756;37.412;2022-12-24T01:00:25;53.90;;;16.05;;
69034;SDS011;56091;55.756;37.412;2022-12-24T01:05:26;54.63;;;15.00;;
69034;SDS011;56091;55.756;37.412;2022-12-24T01:10:27;60.67;;;18.23;;
69034;SDS011;56091;55.756;37.412;2022-12-24T01:15:28;55.60;;;16.43;;
69034;SDS011;56091;55.756;37.412;2022-12-24T01:20:29;56.00;;;15.88;;
69034;SDS011;56091;55.756;37.412;2022-12-24T01:25:32;56.07;;;16.13;;
69034;SDS011;56091;55.756;37.412;2022-12-24T01:30:33;65.70;;;17.17;;
69034;SDS011;56091;55.756;37.412;2022-12-24T01:35:34;52.53;;;16.33;;
69034;SDS011;56091;55.756;37.412;2022-12-24T01:40:34;63.17;;;17.17;;
69034;SDS011;56091;55.756;37.412;2022-12-24T01:51:02;58.30;;;16.63;;
69034;SDS011;56091;55.756;37.412;2022-12-24T01:56:04;61.42;;;16.77;;
69034;SDS011;56091;55.756;37.412;2022-12-24T02:01:06;65.33;;;18.17;;
69034;SDS011;56091;55.756;37.412;2022-12-24T02:06:07;56.67;;;16.00;;
69034;SDS011;56091;55.756;37.412;2022-12-24T02:11:17;57.93;;;15.57;;
69034;SDS011;56091;55.756;37.412;2022-12-24T02:22:01;60.13;;;17.30;;
69034;SDS011;56091;55.756;37.412;2022-12-24T02:32:20;44.27;;;14.83;;
69034;SDS011;56091;55.756;37.412;2022-12-24T02:37:25;59.40;;;16.90;;
69034;SDS011;56091;55.756;37.412;2022-12-24T02:42:35;56.37;;;15.73;;
69034;SDS011;56091;55.756;37.412;2022-12-24T02:47:41;59.75;;;17.10;;
69034;SDS011;56091;55.756;37.412;2022-12-24T02:52:45;58.03;;;17.37;;
69034;SDS011;56091;55.756;37.412;2022-12-24T03:03:37;61.23;;;16.93;;
69034;SDS011;56091;55.756;37.412;2022-12-24T03:14:25;71.87;;;18.07;;
69034;SDS011;56091;55.756;37.412;2022-12-24T03:19:27;61.17;;;17.77;;
69034;SDS011;56091;55.756;37.412;2022-12-24T03:24:28;65.87;;;18.13;;
69034;SDS011;56091;55.756;37.412;2022-12-24T03:29:29;71.20;;;18.80;;
69034;SDS011;56091;55.756;37.412;2022-12-24T03:34:32;66.60;;;18.67;;
69034;SDS011;56091;55.756;37.412;2022-12-24T03:39:36;72.68;;;20.15;;
69034;SDS011;56091;55.756;37.412;2022-12-24T03:44:37;61.40;;;18.90;;
69034;SDS011;56091;55.756;37.412;2022-12-24T03:49:38;60.57;;;18.37;;
69034;SDS011;56091;55.756;37.412;2022-12-24T03:54:38;65.43;;;16.85;;
69034;SDS011;56091;55.756;37.412;2022-12-24T03:59:39;63.70;;;18.90;;
69034;SDS011;56091;55.756;37.412;2022-12-24T04:04:40;58.70;;;17.35;;
69034;SDS011;56091;55.756;37.412;2022-12-24T04:09:41;68.15;;;17.75;;
69034;SDS011;56091;55.756;37.412;2022-12-24T04:14:42;53.67;;;17.40;;
69034;SDS011;56091;55.756;37.412;2022-12-24T04:19:43;61.05;;;17.08;;
69034;SDS011;56091;55.756;37.412;2022-12-24T04:24:47;57.95;;;16.30;;
69034;SDS011;56091;55.756;37.412;2022-12-24T04:29:50;54.90;;;15.93;;
69034;SDS011;56091;55.756;37.412;2022-12-24T04:34:51;55.80;;;17.45;;
69034;SDS011;56091;55.756;37.412;2022-12-24T04:39:52;60.00;;;16.70;;
69034;SDS011;56091;55.756;37.412;2022-12-24T04:44:52;58.83;;;16.67;;
69034;SDS011;56091;55.756;37.412;2022-12-24T04:49:53;63.60;;;16.60;;
69034;SDS011;56091;55.756;37.412;2022-12-24T04:54:55;63.53;;;17.77;;
69034;SDS011;56091;55.756;37.412;2022-12-24T04:59:55;63.30;;;17.20;;
69034;SDS011;56091;55.756;37.412;2022-12-24T05:04:56;63.73;;;18.30;;
69034;SDS011;56091;55.756;37.412;2022-12-24T05:09:57;67.27;;;17.93;;
69034;SDS011;56091;55.756;37.412;2022-12-24T05:15:03;57.03;;;17.52;;
69034;SDS011;56091;55.756;37.412;2022-12-24T05:20:05;63.07;;;16.97;;
69034;SDS011;56091;55.756;37.412;2022-12-24T05:25:11;57.65;;;17.88;;
69034;SDS011;56091;55.756;37.412;2022-12-24T05:30:31;67.13;;;18.97;;
69034;SDS011;56091;55.756;37.412;2022-12-24T05:35:32;62.92;;;17.98;;
69034;SDS011;56091;55.756;37.412;2022-12-24T05:40:33;69.27;;;18.13;;
69034;SDS011;56091;55.756;37.412;2022-12-24T05:45:33;67.53;;;18.45;;
69034;SDS011;56091;55.756;37.412;2022-12-24T05:50:34;56.95;;;17.38;;
69034;SDS011;56091;55.756;37.412;2022-12-24T05:55:38;58.63;;;16.13;;
69034;SDS011;56091;55.756;37.412;2022-12-24T06:00:39;51.30;;;16.00;;
69034;SDS011;56091;55.756;37.412;2022-12-24T06:05:40;49.30;;;15.47;;
69034;SDS011;56091;55.756;37.412;2022-12-24T06:10:41;47.83;;;15.55;;
69034;SDS011;56091;55.756;37.412;2022-12-24T06:15:42;45.53;;;14.67;;
69034;SDS011;56091;55.756;37.412;2022-12-24T06:20:43;47.25;;;14.40;;
69034;SDS011;56091;55.756;37.412;2022-12-24T06:25:44;52.78;;;15.48;;
69034;SDS011;56091;55.756;37.412;2022-12-24T06:30:46;49.23;;;15.27;;
69034;SDS011;56091;55.756;37.412;2022-12-24T06:35:48;52.13;;;16.10;;
69034;SDS011;56091;55.756;37.412;2022-12-24T06:40:52;51.07;;;15.33;;
69034;SDS011;56091;55.756;37.412;2022-12-24T06:45:55;45.90;;;14.85;;
69034;SDS011;56091;55.756;37.412;2022-12-24T06:51:00;48.03;;;14.60;;
69034;SDS011;56091;55.756;37.412;2022-12-24T06:56:03;41.42;;;13.93;;
69034;SDS011;56091;55.756;37.412;2022-12-24T07:01:07;43.20;;;14.03;;
69034;SDS011;56091;55.756;37.412;2022-12-24T07:06:25;42.05;;;13.73;;
69034;SDS011;56091;55.756;37.412;2022-12-24T07:11:31;53.00;;;13.97;;
69034;SDS011;56091;55.756;37.412;2022-12-24T07:16:31;40.53;;;14.15;;
69034;SDS011;56091;55.756;37.412;2022-12-24T07:21:32;39.53;;;14.03;;
69034;SDS011;56091;55.756;37.412;2022-12-24T07:26:33;45.60;;;15.50;;
69034;SDS011;56091;55.756;37.412;2022-12-24T07:31:34;38.27;;;13.37;;
69034;SDS011;56091;55.756;37.412;2022-12-24T07:36:34;44.20;;;13.67;;
69034;SDS011;56091;55.756;37.412;2022-12-24T07:41:35;38.38;;;13.85;;
69034;SDS011;56091;55.756;37.412;2022-12-24T07:46:36;38.13;;;13.03;;
69034;SDS011;56091;55.756;37.412;2022-12-24T07:51:38;36.42;;;13.20;;
69034;SDS011;56091;55.756;37.412;2022-12-24T07:56:39;37.93;;;12.57;;
69034;SDS011;56091;55.756;37.412;2022-12-24T08:01:39;33.57;;;12.20;;
69034;SDS011;56091;55.756;37.412;2022-12-24T08:06:40;36.33;;;12.13;;
69034;SDS011;56091;55.756;37.412;2022-12-24T08:11:41;33.43;;;11.57;;
69034;SDS011;56091;55.756;37.412;2022-12-24T08:16:42;24.42;;;9.93;;
69034;SDS011;56091;55.756;37.412;2022-12-24T08:21:46;29.43;;;10.23;;
69034;SDS011;56091;55.756;37.412;2022-12-24T08:26:47;26.23;;;10.02;;
69034;SDS011;56091;55.756;37.412;2022-12-24T08:31:47;29.23;;;10.00;;
69034;SDS011;56091;55.756;37.412;2022-12-24T08:36:48;27.90;;;11.70;;
69034;SDS011;56091;55.756;37.412;2022-12-24T08:41:49;26.85;;;9.95;;
69034;SDS011;56091;55.756;37.412;2022-12-24T08:46:51;26.93;;;9.87;;
69034;SDS011;56091;55.756;37.412;2022-12-24T08:51:51;29.17;;;10.05;;
69034;SDS011;56091;55.756;37.412;2022-12-24T08:56:55;29.53;;;9.93;;
69034;SDS011;56091;55.756;37.412;2022-12-24T09:01:56;27.70;;;8.90;;
69034;SDS011;56091;55.756;37.412;2022-12-24T09:06:57;23.33;;;8.83;;
69034;SDS011;56091;55.756;37.412;2022-12-24T09:11:58;22.77;;;8.40;;
69034;SDS011;56091;55.756;37.412;2022-12-24T09:16:59;23.50;;;9.02;;
69034;SDS011;56091;55.756;37.412;2022-12-24T09:22:00;20.75;;;8.45;;
69034;SDS011;56091;55.756;37.412;2022-12-24T09:27:00;20.48;;;8.88;;
69034;SDS011;56091;55.756;37.412;2022-12-24T09:32:03;23.03;;;8.33;;
69034;SDS011;56091;55.756;37.412;2022-12-24T09:37:04;22.52;;;8.50;;
69034;SDS011;56091;55.756;37.412;2022-12-24T09:47:35;22.20;;;9.18;;
69034;SDS011;56091;55.756;37.412;2022-12-24T09:52:40;17.77;;;7.77;;
69034;SDS011;56091;55.756;37.412;2022-12-24T09:57:44;25.85;;;9.82;;
69034;SDS011;56091;55.756;37.412;2022-12-24T10:02:48;27.57;;;10.53;;
69034;SDS011;56091;55.756;37.412;2022-12-24T10:07:59;27.13;;;9.95;;
69034;SDS011;56091;55.756;37.412;2022-12-24T10:29:39;22.88;;;8.68;;
69034;SDS011;56091;55.756;37.412;2022-12-24T10:34:48;25.10;;;8.87;;
69034;SDS011;56091;55.756;37.412;2022-12-24T10:39:57;22.83;;;8.27;;
69034;SDS011;56091;55.756;37.412;2022-12-24T10:45:00;22.13;;;8.73;;
69034;SDS011;56091;55.756;37.412;2022-12-24T10:55:29;21.40;;;8.40;;
69034;SDS011;56091;55.756;37.412;2022-12-24T11:00:30;23.38;;;8.85;;
69034;SDS011;56091;55.756;37.412;2022-12-24T11:05:34;29.03;;;10.23;;
69034;SDS011;56091;55.756;37.412;2022-12-24T11:10:41;25.38;;;9.90;;
69034;SDS011;56091;55.756;37.412;2022-12-24T11:16:00;23.07;;;9.07;;
69034;SDS011;56091;55.756;37.412;2022-12-24T11:21:18;24.27;;;8.85;;
69034;SDS011;56091;55.756;37.412;2022-12-24T11:26:22;21.67;;;8.40;;
69034;SDS011;56091;55.756;37.412;2022-12-24T11:31:24;24.50;;;8.57;;
69034;SDS011;56091;55.756;37.412;2022-12-24T11:36:25;21.17;;;8.67;;
69034;SDS011;56091;55.756;37.412;2022-12-24T11:41:35;21.15;;;8.30;;
69034;SDS011;56091;55.756;37.412;2022-12-24T11:46:41;23.93;;;8.93;;
69034;SDS011;56091;55.756;37.412;2022-12-24T11:52:16;20.02;;;8.15;;
69034;SDS011;56091;55.756;37.412;2022-12-24T11:57:21;21.70;;;8.17;;
69034;SDS011;56091;55.756;37.412;2022-12-24T12:02:30;20.50;;;7.97;;
69034;SDS011;56091;55.756;37.412;2022-12-24T12:07:36;19.20;;;7.73;;
69034;SDS011;56091;55.756;37.412;2022-12-24T12:12:41;18.73;;;7.45;;
69034;SDS011;56091;55.756;37.412;2022-12-24T12:23:17;17.00;;;6.97;;
69034;SDS011;56091;55.756;37.412;2022-12-24T12:28:27;20.70;;;8.07;;
69034;SDS011;56091;55.756;37.412;2022-12-24T12:38:39;16.00;;;6.23;;
69034;SDS011;56091;55.756;37.412;2022-12-24T12:49:17;14.33;;;5.60;;
69034;SDS011;56091;55.756;37.412;2022-12-24T12:59:53;15.70;;;5.80;;
69034;SDS011;56091;55.756;37.412;2022-12-24T13:10:58;16.73;;;6.37;;
69034;SDS011;56091;55.756;37.412;2022-12-24T13:21:19;14.10;;;6.33;;
69034;SDS011;56091;55.756;37.412;2022-12-24T13:26:22;16.43;;;5.93;;
69034;SDS011;56091;55.756;37.412;2022-12-24T13:31:23;14.00;;;6.53;;
69034;SDS011;56091;55.756;37.412;2022-12-24T13:36:59;15.27;;;6.20;;
69034;SDS011;56091;55.756;37.412;2022-12-24T13:42:02;13.88;;;6.32;;
69034;SDS011;56091;55.756;37.412;2022-12-24T13:47:04;13.13;;;6.00;;
69034;SDS011;56091;55.756;37.412;2022-12-24T13:52:20;14.18;;;5.90;;
69034;SDS011;56091;55.756;37.412;2022-12-24T13:57:29;19.67;;;7.03;;
69034;SDS011;56091;55.756;37.412;2022-12-24T14:02:38;14.30;;;6.00;;
69034;SDS011;56091;55.756;37.412;2022-12-24T14:07:49;13.13;;;6.13;;
69034;SDS011;56091;55.756;37.412;2022-12-24T14:12:51;13.40;;;6.18;;
69034;SDS011;56091;55.756;37.412;2022-12-24T14:17:52;12.97;;;6.87;;
69034;SDS011;56091;55.756;37.412;2022-12-24T14:22:53;16.40;;;6.80;;
69034;SDS011;56091;55.756;37.412;2022-12-24T14:27:59;18.43;;;7.20;;
69034;SDS011;56091;55.756;37.412;2022-12-24T14:33:05;17.50;;;7.40;;
69034;SDS011;56091;55.756;37.412;2022-12-24T14:38:25;14.70;;;6.67;;
69034;SDS011;56091;55.756;37.412;2022-12-24T14:54:41;15.90;;;6.65;;
69034;SDS011;56091;55.756;37.412;2022-12-24T15:10:41;14.47;;;6.80;;
69034;SDS011;56091;55.756;37.412;2022-12-24T15:15:44;16.08;;;7.03;;
69034;SDS011;56091;55.756;37.412;2022-12-24T15:20:47;17.70;;;7.33;;
69034;SDS011;56091;55.756;37.412;2022-12-24T15:25:51;19.38;;;7.38;;
69034;SDS011;56091;55.756;37.412;2022-12-24T15:31:12;15.90;;;7.13;;
69034;SDS011;56091;55.756;37.412;2022-12-24T15:41:37;17.87;;;8.27;;
69034;SDS011;56091;55.756;37.412;2022-12-24T15:47:01;27.63;;;8.45;;
69034;SDS011;56091;55.756;37.412;2022-12-24T15:52:09;22.37;;;8.90;;
69034;SDS011;56091;55.756;37.412;2022-12-24T15:57:19;17.52;;;7.50;;
69034;SDS011;56091;55.756;37.412;2022-12-24T16:02:33;17.60;;;7.87;;
69034;SDS011;56091;55.756;37.412;2022-12-24T16:07:37;16.77;;;7.60;;
69034;SDS011;56091;55.756;37.412;2022-12-24T16:13:17;21.33;;;8.30;;
69034;SDS011;56091;55.756;37.412;2022-12-24T16:18:49;20.75;;;8.40;;
69034;SDS011;56091;55.756;37.412;2022-12-24T16:23:55;19.53;;;7.87;;
69034;SDS011;56091;55.756;37.412;2022-12-24T16:29:03;16.05;;;7.03;;
69034;SDS011;56091;55.756;37.412;2022-12-24T16:34:05;17.70;;;7.50;;
69034;SDS011;56091;55.756;37.412;2022-12-24T16:44:33;19.23;;;8.03;;
69034;SDS011;56091;55.756;37.412;2022-12-24T16:49:35;19.75;;;7.38;;
69034;SDS011;56091;55.756;37.412;2022-12-24T16:54:38;17.57;;;8.10;;
69034;SDS011;56091;55.756;37.412;2022-12-24T16:59:38;14.82;;;7.05;;
69034;SDS011;56091;55.756;37.412;2022-12-24T17:04:39;15.33;;;6.60;;
69034;SDS011;56091;55.756;37.412;2022-12-24T17:09:41;15.65;;;6.18;;
69034;SDS011;56091;55.756;37.412;2022-12-24T17:14:42;11.17;;;5.53;;
69034;SDS011;56091;55.756;37.412;2022-12-24T17:19:44;14.63;;;5.60;;
69034;SDS011;56091;55.756;37.412;2022-12-24T17:24:53;16.73;;;5.83;;
69034;SDS011;56091;55.756;37.412;2022-12-24T17:29:54;14.05;;;5.97;;
69034;SDS011;56091;55.756;37.412;2022-12-24T17:35:01;11.40;;;5.13;;
69034;SDS011;56091;55.756;37.412;2022-12-24T17:40:03;11.00;;;4.88;;
69034;SDS011;56091;55.756;37.412;2022-12-24T17:45:05;11.60;;;5.40;;
69034;SDS011;56091;55.756;37.412;2022-12-24T17:50:06;12.77;;;5.07;;
69034;SDS011;56091;55.756;37.412;2022-12-24T17:55:08;10.47;;;5.07;;
69034;SDS011;56091;55.756;37.412;2022-12-24T18:00:09;12.10;;;5.20;;
69034;SDS011;56091;55.756;37.412;2022-12-24T18:05:11;11.80;;;4.90;;
69034;SDS011;56091;55.756;37.412;2022-12-24T18:10:12;13.80;;;4.85;;
69034;SDS011;56091;55.756;37.412;2022-12-24T18:15:16;11.47;;;4.90;;
69034;SDS011;56091;55.756;37.412;2022-12-24T18:20:19;12.05;;;5.45;;
69034;SDS011;56091;55.756;37.412;2022-12-24T18:25:21;11.00;;;4.85;;
69034;SDS011;56091;55.756;37.412;2022-12-24T18:30:22;10.80;;;4.35;;
69034;SDS011;56091;55.756;37.412;2022-12-24T18:35:26;11.82;;;4.93;;
69034;SDS011;56091;55.756;37.412;2022-12-24T18:40:27;11.48;;;4.70;;
69034;SDS011;56091;55.756;37.412;2022-12-24T18:45:28;10.30;;;5.20;;
69034;SDS011;56091;55.756;37.412;2022-12-24T18:50:29;11.33;;;4.77;;
69034;SDS011;56091;55.756;37.412;2022-12-24T18:55:32;12.30;;;4.72;;
69034;SDS011;56091;55.756;37.412;2022-12-24T19:00:34;12.90;;;5.17;;
69034;SDS011;56091;55.756;37.412;2022-12-24T19:05:35;12.13;;;4.70;;
69034;SDS011;56091;55.756;37.412;2022-12-24T19:10:36;12.45;;;5.18;;
69034;SDS011;56091;55.756;37.412;2022-12-24T19:15:39;13.53;;;3.80;;
69034;SDS011;56091;55.756;37.412;2022-12-24T19:20:41;11.70;;;4.78;;
69034;SDS011;56091;55.756;37.412;2022-12-24T19:25:42;10.63;;;4.70;;
69034;SDS011;56091;55.756;37.412;2022-12-24T19:30:43;11.60;;;4.38;;
69034;SDS011;56091;55.756;37.412;2022-12-24T19:35:44;11.40;;;5.00;;
69034;SDS011;56091;55.756;37.412;2022-12-24T19:40:45;10.38;;;4.30;;
69034;SDS011;56091;55.756;37.412;2022-12-24T19:45:46;11.90;;;4.33;;
69034;SDS011;56091;55.756;37.412;2022-12-24T19:50:47;8.15;;;3.55;;
69034;SDS011;56091;55.756;37.412;2022-12-24T19:55:48;10.00;;;4.43;;
69034;SDS011;56091;55.756;37.412;2022-12-24T20:00:49;11.50;;;4.93;;
69034;SDS011;56091;55.756;37.412;2022-12-24T20:05:52;11.63;;;5.20;;
69034;SDS011;56091;55.756;37.412;2022-12-24T20:10:56;12.45;;;5.20;;
69034;SDS011;56091;55.756;37.412;2022-12-24T20:16:01;12.60;;;5.30;;
69034;SDS011;56091;55.756;37.412;2022-12-24T20:21:06;11.75;;;5.43;;
69034;SDS011;56091;55.756;37.412;2022-12-24T20:26:10;19.00;;;6.75;;
69034;SDS011;56091;55.756;37.412;2022-12-24T20:31:16;12.65;;;4.68;;
69034;SDS011;56091;55.756;37.412;2022-12-24T20:36:20;15.25;;;5.07;;
69034;SDS011;56091;55.756;37.412;2022-12-24T20:41:22;12.93;;;5.80;;
69034;SDS011;56091;55.756;37.412;2022-12-24T20:46:25;13.13;;;5.10;;
69034;SDS011;56091;55.756;37.412;2022-12-24T20:51:27;11.80;;;5.32;;
69034;SDS011;56091;55.756;37.412;2022-12-24T20:56:28;14.00;;;4.80;;
69034;SDS011;56091;55.756;37.412;2022-12-24T21:01:30;10.90;;;4.90;;
69034;SDS011;56091;55.756;37.412;2022-12-24T21:06:31;10.98;;;4.68;;
69034;SDS011;56091;55.756;37.412;2022-12-24T21:11:33;10.73;;;4.97;;
69034;SDS011;56091;55.756;37.412;2022-12-24T21:16:49;10.90;;;4.72;;
69034;SDS011;56091;55.756;37.412;2022-12-24T21:21:51;10.57;;;4.60;;
69034;SDS011;56091;55.756;37.412;2022-12-24T21:26:52;10.82;;;4.60;;
69034;SDS011;56091;55.756;37.412;2022-12-24T21:31:53;10.97;;;4.60;;
69034;SDS011;56091;55.756;37.412;2022-12-24T21:36:54;9.48;;;4.35;;
69034;SDS011;56091;55.756;37.412;2022-12-24T21:41:55;10.67;;;4.33;;
69034;SDS011;56091;55.756;37.412;2022-12-24T21:46:56;9.55;;;4.20;;
69034;SDS011;56091;55.756;37.412;2022-12-24T21:51:57;9.27;;;3.53;;
69034;SDS011;56091;55.756;37.412;2022-12-24T21:56:59;9.30;;;3.15;;
69034;SDS011;56091;55.756;37.412;2022-12-24T22:02:24;9.77;;;3.90;;
69034;SDS011;56091;55.756;37.412;2022-12-24T22:07:27;10.77;;;3.90;;
69034;SDS011;56091;55.756;37.412;2022-12-24T22:12:47;9.83;;;3.63;;
69034;SDS011;56091;55.756;37.412;2022-12-24T22:17:48;7.60;;;3.22;;
69034;SDS011;56091;55.756;37.412;2022-12-24T22:22:49;8.73;;;3.57;;
69034;SDS011;56091;55.756;37.412;2022-12-24T22:27:49;6.45;;;2.92;;
69034;SDS011;56091;55.756;37.412;2022-12-24T22:32:51;10.37;;;3.50;;
69034;SDS011;56091;55.756;37.412;2022-12-24T22:37:52;6.57;;;2.47;;
69034;SDS011;56091;55.756;37.412;2022-12-24T22:42:53;6.47;;;1.77;;
69034;SDS011;56091;55.756;37.412;2022-12-24T22:47:55;4.75;;;1.67;;
69034;SDS011;56091;55.756;37.412;2022-12-24T22:52:55;5.00;;;1.77;;
69034;SDS011;56091;55.756;37.412;2022-12-24T22:57:57;6.32;;;2.00;;
69034;SDS011;56091;55.756;37.412;2022-12-24T23:02:58;5.07;;;1.90;;
69034;SDS011;56091;55.756;37.412;2022-12-24T23:07:59;5.43;;;2.27;;
69034;SDS011;56091;55.756;37.412;2022-12-24T23:13:00;4.47;;;1.70;;
69034;SDS011;56091;55.756;37.412;2022-12-24T23:18:19;6.90;;;2.87;;
69034;SDS011;56091;55.756;37.412;2022-12-24T23:23:21;6.07;;;2.60;;
69034;SDS011;56091;55.756;37.412;2022-12-24T23:28:22;5.30;;;1.93;;
69034;SDS011;56091;55.756;37.412;2022-12-24T23:33:23;6.10;;;2.20;;
69034;SDS011;56091;55.756;37.412;2022-12-24T23:38:24;5.50;;;2.40;;
69034;SDS011;56091;55.756;37.412;2022-12-24T23:43:25;5.32;;;2.08;;
69034;SDS011;56091;55.756;37.412;2022-12-24T23:48:26;4.33;;;1.67;;
69034;SDS011;56091;55.756;37.412;2022-12-24T23:53:28;3.60;;;1.25;;
69034;SDS011;56091;55.756;37.412;2022-12-24T23:58:30;4.03;;;1.60;;
